Terminal Aerodrome Forecast
Issued by NWS La Crosse, WI

Home | Current Version | Previous Version | Text Only | Print | Product List | Glossary On
Versions: 1 2 3 4 5 6 7 8 9 10 11 12 13 14 15 16 17 18 19 20 21 22 23 24 25 26 27 28
000
FTUS43 KARX 290952 AAA
TAFRST
TAF AMD
KRST 290952Z 2910/3006 18020G30KT 5SM -FZRA BKN070 WS015/22050KT
     FM291200 23025G32KT P6SM BKN020
     FM291800 30028G38KT P6SM BKN030
     FM300000 31015G22KT P6SM SCT035=

USA.gov is the U.S. government's official web portal to all federal, state and local government web resources and services.